Terminal Aerodrome Forecast
Issued by NWS

Home | Current Version | Previous Version | Text Only | Print | Product List | Glossary On
Versions: 1 2 3 4 5 6 7 8 9 10 11 12 13 14 15 16 17 18 19 20 21 22 23
000
FTUS43 KGRB 192300 RRA
TAFMTW
TAF
KMTW 192343Z 2000/2024 19016G26KT P6SM SCT070 BKN150 WS012/20040KT
     FM200500 20013G19KT P6SM SCT035 BKN070 WS012/23040KT
      TEMPO 2006/2008 4SM SHRA OVC035
     FM201000 22010G17KT P6SM SCT012 BKN080 WS015/25040KT
      TEMPO 2010/2014 4SM SHRA BR BKN012
     FM201400 23012G19KT P6SM SCT015 BKN100
     FM202100 26011G18KT P6SM SCT025 SCT100=

USA.gov is the U.S. government's official web portal to all federal, state and local government web resources and services.